Freeport, TX (77541)

9:20 AM CST on December 26, 2014 (GMT -0600)
Freeport - Air Liquide | Change Station
CLOSE
Current Station
Personal Weather Station
Location: Freeport, TX
Elevation: 10 ft
Nearby Weather Stations

Elev 10 ft 28.99 °N, 95.34 °W | Updated 4 seconds ago

Overcast
Overcast
67.3 °F
Feels Like 67.3 °F
N
12.0
Wind Variable Wind from SE
Gusts 12.0 mph

Today
High -- | Low -- °F
--% Chance of Precip.
Yesterday
High -- | Low -- °F
Precip. -- in
7:12 AM 5:30 PM
Waxing Crescent, 26% visible
Pressure 30.02 in
Visibility 10.0 miles
Clouds Few 3300 ft
Mostly Cloudy 4600 ft
Overcast 5500 ft
Dew Point 64 °F
Humidity 88%
Rainfall 0.00 in
Snow Depth Not available.
UV 8.0 out of 12
Pollen 6.50 out of 12
Air Quality Not available.
Flu Activity Not available.
METAR KLBX 261453Z AUTO 15010KT 10SM FEW033 BKN046 OVC055 20/16 A3002 RMK AO2 SLP165 T02000161 53005

More Conditions Fewer Conditions

Pressure 30.02 in
Visibility 10.0 miles
Clouds Few 3300 ft
Mostly Cloudy 4600 ft
Overcast 5500 ft
Dew Point 64 °F
Humidity 88%
Rainfall 0.00 in
Snow Depth Not available.
UV 8.0 out of 12
Pollen 6.50 out of 12
Air Quality Not available.
Flu Activity Not available.
METAR KLBX 261453Z AUTO 15010KT 10SM FEW033 BKN046 OVC055 20/16 A3002 RMK AO2 SLP165 T02000161 53005

More Conditions Fewer Conditions

10-Day Weather Forecast

Almanac

Astronomy

Dec. 26, 2014 Rise Set
Actual Time
Civil Twilight
Nautical Twilight
Astronomical Twilight
Moon
Length of Visible Light
Length of Day
Tomorrow will be .
, % of the Moon is Illuminated

Today's Extremes

State Highs State Lows

Community

WunderPhotos

Upload Photos

1,780,609 photos uploaded!

WunderBlogs® & News

Nearby

Air Quality

  Air Quality AQ Index Pollutant
Not available.

Snow Depth

Station Depth Elevation

Earthquake Activity

City Distance Mag. Time & Date
Minimum magnitude displayed is 2.5.

Coastal Water Temperatures

Place Temperature

Nearby Weather Stations